Time;durP1;ratioP1;P1;durP2;ratioP2;P2;SDS_P1;SDS_P2;PMS_P1;PMS_P2;Temp;Humidity;BMP_temperature;BMP_pressure;BME280_temperature;BME280_humidity;BME280_pressure;Samples;Min_cycle;Max_cycle;Signal;HPM_P1;HPM_P2
2022/01/14 00:01:12;;;;;;;73.37;31.10;;;;;;;;;;5204992;28;20041;-84
2022/01/14 00:03:45;;;;;;;66.90;29.05;;;;;;;;;;5157728;28;20291;-84
2022/01/14 00:06:18;;;;;;;70.78;29.10;;;;;;;;;;5191066;28;20049;-84
2022/01/14 00:08:54;;;;;;;60.10;27.03;;;;;;;;;;5194933;28;20056;-84
2022/01/14 00:11:30;;;;;;;65.50;27.23;;;;;;;;;;5161054;28;20303;-83
2022/01/14 00:16:36;;;;;;;63.25;27.05;;;;;;;;;;5198193;28;20940;-84
2022/01/14 00:19:09;;;;;;;60.97;28.13;;;;;;;;;;5211164;28;20052;-85
2022/01/14 00:21:44;;;;;;;70.68;27.88;;;;;;;;;;5168418;28;20529;-84
2022/01/14 00:35:41;;;;;;;66.05;28.25;;;-1.00;99.90;;;;;;5202490;28;20075;-38
2022/01/14 00:38:14;;;;;;;66.03;28.80;;;;;;;;;;5202921;28;20200;-38
2022/01/14 00:40:47;;;;;;;68.10;28.10;;;;;;;;;;5219264;28;20044;-38
2022/01/14 00:43:20;;;;;;;64.37;27.30;;;;;;;;;;5233182;28;20501;-38
2022/01/14 00:45:55;;;;;;;71.93;28.33;;;;;;;;;;5235337;28;20048;-37
2022/01/14 00:48:28;;;;;;;68.35;28.88;;;;;;;;;;5237497;28;20290;-38
2022/01/14 00:51:01;;;;;;;74.72;28.67;;;;;;;;;;5230507;28;20052;-38
2022/01/14 00:53:33;;;;;;;75.70;31.35;;;;;;;;;;5233228;28;20055;-39
2022/01/14 00:56:19;;;;;;;70.78;28.45;;;;;;;;;;5212573;28;20036;-38
2022/01/14 01:01:48;;;;;;;65.80;28.60;;;-1.00;99.90;;;;;;5217957;28;20040;-38
2022/01/14 01:04:33;;;;;;;72.35;28.92;;;-1.00;99.90;;;;;;5232164;28;20407;-38
2022/01/14 01:07:09;;;;;;;75.93;29.90;;;-1.00;99.90;;;;;;5237336;28;20040;-38
2022/01/14 01:09:46;;;;;;;70.35;29.75;;;;;;;;;;5234052;28;20059;-38
2022/01/14 01:15:14;;;;;;;68.65;28.13;;;;;;;;;;5215226;28;20040;-37
2022/01/14 01:17:47;;;;;;;72.03;30.30;;;;;;;;;;5211169;28;20047;-37
2022/01/14 01:20:21;;;;;;;67.07;27.98;;;;;;;;;;5231788;28;20075;-37
2022/01/14 01:22:54;;;;;;;67.45;28.42;;;;;;;;;;5228997;28;20056;-38
2022/01/14 01:25:47;;;;;;;65.40;27.05;;;;;;;;;;5229922;28;20058;-38
2022/01/14 01:28:20;;;;;;;59.45;27.73;;;;;;;;;;5211377;28;20487;-38
2022/01/14 01:33:28;;;;;;;58.80;26.48;;;;;;;;;;5234821;28;20055;-38
2022/01/14 01:36:01;;;;;;;66.35;27.65;;;;;;;;;;5236205;28;20676;-38
2022/01/14 01:38:34;;;;;;;69.63;29.88;;;;;;;;;;5221052;28;20055;-39
2022/01/14 01:41:07;;;;;;;71.15;30.67;;;;;;;;;;5216398;28;20063;-38
2022/01/14 01:43:42;;;;;;;68.55;28.02;;;-1.20;99.90;;;;;;5214777;28;20633;-38
2022/01/14 01:46:15;;;;;;;68.30;28.42;;;;;;;;;;5206603;28;20052;-37
2022/01/14 01:48:48;;;;;;;62.65;28.13;;;;;;;;;;5229100;28;20511;-38
2022/01/14 01:51:21;;;;;;;50.50;22.03;;;;;;;;;;5235530;28;20604;-37
2022/01/14 01:53:54;;;;;;;64.78;27.52;;;;;;;;;;5216487;28;20313;-37
2022/01/14 01:56:27;;;;;;;65.70;27.10;;;;;;;;;;5229979;28;20075;-37
2022/01/14 01:58:59;;;;;;;61.80;25.17;;;;;;;;;;5229816;28;20044;-39
2022/01/14 02:01:33;;;;;;;68.28;27.05;;;-1.20;99.90;;;;;;5224851;28;20050;-37
2022/01/14 02:04:06;;;;;;;63.97;26.90;;;;;;;;;;5228623;28;20054;-38
2022/01/14 02:06:40;;;;;;;69.70;27.35;;;-1.20;99.90;;;;;;5239506;28;20410;-37
2022/01/14 02:09:13;;;;;;;61.53;27.08;;;;;;;;;;5233308;28;20067;-38
2022/01/14 02:11:46;;;;;;;65.90;27.25;;;;;;;;;;5232252;28;20056;-37
2022/01/14 02:22:55;;;;;;;72.85;28.60;;;-1.50;99.90;;;;;;5209363;28;20052;-39
2022/01/14 02:25:30;;;;;;;61.78;26.45;;;;;;;;;;5232515;28;20040;-37
2022/01/14 02:28:09;;;;;;;63.45;27.13;;;-1.40;99.90;;;;;;5227984;28;20401;-38
2022/01/14 02:30:44;;;;;;;59.33;25.48;;;-0.80;99.90;;;;;;5221034;28;20415;-38
2022/01/14 02:33:18;;;;;;;59.97;26.15;;;-1.30;99.90;;;;;;5232396;28;20044;-37
2022/01/14 02:35:51;;;;;;;64.15;27.27;;;;;;;;;;5225010;28;20052;-38
2022/01/14 02:38:24;;;;;;;62.72;27.85;;;;;;;;;;5225121;28;20040;-38
2022/01/14 02:40:58;;;;;;;65.55;26.25;;;;;;;;;;5233609;28;20628;-37
2022/01/14 02:43:31;;;;;;;60.72;25.83;;;;;;;;;;5220496;28;20468;-37
2022/01/14 02:46:05;;;;;;;58.35;25.98;;;;;;;;;;5233080;28;20047;-38
2022/01/14 02:48:38;;;;;;;66.45;26.70;;;;;;;;;;5227099;28;20040;-37
2022/01/14 02:51:13;;;;;;;56.23;25.23;;;;;;;;;;5213720;28;20498;-37
2022/01/14 02:53:57;;;;;;;63.45;26.20;;;;;;;;;;5227615;28;20044;-37
2022/01/14 02:56:31;;;;;;;;;;;-1.40;99.90;;;;;;5232589;28;20059;-38
2022/01/14 02:59:04;;;;;;;66.20;26.17;;;;;;;;;;5233616;28;20957;-37
2022/01/14 03:01:37;;;;;;;62.70;25.58;;;;;;;;;;5236834;28;20446;-37
2022/01/14 03:04:15;;;;;;;61.13;25.52;;;-1.50;99.90;;;;;;5234683;28;20055;-37
2022/01/14 03:06:48;;;;;;;63.15;27.63;;;;;;;;;;5236170;28;20055;-37
2022/01/14 03:09:21;;;;;;;63.78;26.33;;;;;;;;;;5239126;28;20048;-38
2022/01/14 03:11:55;;;;;;;63.05;26.88;;;-1.60;99.90;;;;;;5227372;28;20506;-38
2022/01/14 03:14:28;;;;;;;67.93;25.63;;;;;;;;;;5234670;28;20048;-37
2022/01/14 03:17:02;;;;;;;61.70;27.87;;;;;;;;;;5218930;28;20051;-38
2022/01/14 03:19:34;;;;;;;;;;;-1.50;99.90;;;;;;5235273;28;20040;-37
2022/01/14 03:22:19;;;;;;;63.47;24.92;;;;;;;;;;5240684;28;19932;-37
2022/01/14 03:27:24;;;;;;;63.10;26.00;;;;;;;;;;5230119;28;20531;-37
2022/01/14 03:29:57;;;;;;;56.17;24.77;;;;;;;;;;5232536;28;20066;-38
2022/01/14 03:32:30;;;;;;;58.35;24.50;;;;;;;;;;5233136;28;21494;-37
2022/01/14 03:35:03;;;;;;;57.88;25.20;;;;;;;;;;5236672;28;20047;-37
2022/01/14 03:37:36;;;;;;;54.05;25.58;;;;;;;;;;5233799;28;20267;-37
2022/01/14 03:40:09;;;;;;;51.37;23.57;;;;;;;;;;5227796;28;20050;-38
2022/01/14 03:42:42;;;;;;;56.80;24.98;;;;;;;;;;5206742;28;20059;-37
2022/01/14 03:45:14;;;;;;;53.97;24.33;;;;;;;;;;5225333;28;20362;-37
2022/01/14 03:47:47;;;;;;;54.28;24.15;;;;;;;;;;5219768;28;20068;-37
2022/01/14 03:50:20;;;;;;;61.13;24.92;;;;;;;;;;5229850;28;20587;-38
2022/01/14 03:52:53;;;;;;;53.77;23.90;;;;;;;;;;5210342;28;20203;-37
2022/01/14 03:55:25;;;;;;;55.67;24.47;;;;;;;;;;5223701;28;20045;-38
2022/01/14 03:57:58;;;;;;;54.37;22.37;;;;;;;;;;5213592;28;20048;-37
2022/01/14 04:00:31;;;;;;;50.42;22.83;;;;;;;;;;5226506;28;20048;-37
2022/01/14 04:03:06;;;;;;;50.13;23.43;;;-1.20;99.90;;;;;;5232974;28;20048;-37
2022/01/14 04:05:39;;;;;;;51.30;22.88;;;;;;;;;;5244159;28;20045;-37
2022/01/14 04:08:11;;;;;;;56.00;23.70;;;;;;;;;;5241483;28;20052;-38
2022/01/14 04:10:45;;;;;;;47.38;21.45;;;;;;;;;;5242110;28;20294;-38
2022/01/14 04:13:23;;;;;;;47.15;22.55;;;;;;;;;;5241297;28;20053;-36
2022/01/14 04:15:56;;;;;;;53.28;22.20;;;;;;;;;;5243086;28;20048;-37
2022/01/14 04:18:28;;;;;;;53.90;20.87;;;;;;;;;;5222304;28;20071;-39
2022/01/14 04:21:01;;;;;;;46.53;20.93;;;;;;;;;;5239290;28;25598;-37
2022/01/14 04:23:34;;;;;;;42.25;20.60;;;;;;;;;;5235768;28;20774;-36
2022/01/14 04:26:07;;;;;;;43.90;22.00;;;;;;;;;;5238245;28;20040;-37
2022/01/14 04:28:40;;;;;;;48.57;22.30;;;;;;;;;;5240921;28;20052;-37
2022/01/14 04:31:12;;;;;;;47.38;21.33;;;;;;;;;;5241353;28;20048;-36
2022/01/14 04:33:45;;;;;;;51.43;21.30;;;;;;;;;;5222838;28;20044;-37
2022/01/14 04:36:18;;;;;;;45.10;20.85;;;;;;;;;;5245433;28;20500;-37
2022/01/14 04:38:51;;;;;;;48.50;20.92;;;;;;;;;;5240450;28;20037;-37
2022/01/14 04:41:24;;;;;;;39.58;18.45;;;;;;;;;;5242177;28;20044;-37
2022/01/14 04:43:57;;;;;;;41.00;19.97;;;;;;;;;;5224387;28;20048;-38
2022/01/14 04:49:08;;;;;;;41.95;20.27;;;;;;;;;;5240803;28;20071;-37
2022/01/14 04:51:41;;;;;;;46.97;21.00;;;;;;;;;;5233722;28;20508;-37
2022/01/14 04:54:14;;;;;;;44.65;20.42;;;;;;;;;;5234001;28;20040;-37
2022/01/14 04:56:47;;;;;;;41.97;20.73;;;;;;;;;;5228464;28;20098;-37
2022/01/14 04:59:22;;;;;;;42.25;20.23;;;;;;;;;;5213369;28;20349;-37
2022/01/14 05:01:57;;;;;;;41.42;19.50;;;;;;;;;;5229886;28;20032;-36
2022/01/14 05:04:30;;;;;;;36.85;19.33;;;;;;;;;;5232438;28;20052;-37
2022/01/14 05:07:03;;;;;;;41.43;19.20;;;;;;;;;;5217693;28;20053;-36
2022/01/14 05:09:40;;;;;;;38.95;19.20;;;;;;;;;;5222420;28;20049;-37
2022/01/14 05:12:13;;;;;;;38.22;18.92;;;;;;;;;;5237550;28;20063;-37
2022/01/14 05:14:46;;;;;;;39.13;20.13;;;;;;;;;;5236555;28;20436;-37
2022/01/14 05:17:19;;;;;;;38.70;18.83;;;;;;;;;;5236474;28;20075;-37
2022/01/14 05:19:52;;;;;;;39.33;17.93;;;;;;;;;;5231490;28;20067;-36
2022/01/14 05:22:25;;;;;;;41.47;19.00;;;-1.90;99.90;;;;;;5240741;28;20036;-37
2022/01/14 05:24:57;;;;;;;;;;;-1.90;99.90;;;;;;5233542;28;20514;-37
2022/01/14 05:27:30;;;;;;;38.72;19.30;;;;;;;;;;5238764;28;19924;-37
2022/01/14 05:30:10;;;;;;;41.97;19.57;;;-1.80;99.90;;;;;;5241014;28;20051;-36
2022/01/14 05:32:48;;;;;;;39.10;19.15;;;-1.90;99.90;;;;;;5237653;28;20557;-37
2022/01/14 05:35:27;;;;;;;42.78;19.58;;;-1.80;99.90;;;;;;5216638;28;20047;-37
2022/01/14 05:37:59;;;;;;;43.67;19.60;;;;;;;;;;5235398;28;20072;-37
2022/01/14 05:40:32;;;;;;;38.40;18.33;;;;;;;;;;5235780;28;20055;-37
2022/01/14 05:43:05;;;;;;;39.92;19.50;;;;;;;;;;5215179;28;20044;-37
2022/01/14 05:45:38;;;;;;;39.40;18.70;;;;;;;;;;5222045;28;20618;-36
2022/01/14 05:48:11;;;;;;;45.23;19.53;;;;;;;;;;5208720;28;20048;-37
2022/01/14 05:50:43;;;;;;;37.97;18.60;;;;;;;;;;5224288;28;20458;-37
2022/01/14 05:53:16;;;;;;;39.73;19.80;;;;;;;;;;5235773;28;20547;-36
2022/01/14 05:55:49;;;;;;;38.20;18.07;;;;;;;;;;5234802;28;20789;-37
2022/01/14 05:58:22;;;;;;;35.83;18.13;;;;;;;;;;5230333;28;20048;-36
2022/01/14 06:00:55;;;;;;;41.53;18.23;;;;;;;;;;5216785;28;20047;-37
2022/01/14 06:03:28;;;;;;;46.65;21.33;;;;;;;;;;5248223;23;20057;-87
2022/01/14 06:06:00;;;;;;;43.63;20.08;;;;;;;;;;5142579;28;20409;-86
2022/01/14 06:08:33;;;;;;;42.25;19.70;;;;;;;;;;5176796;28;20049;-86
2022/01/14 06:11:06;;;;;;;39.25;18.35;;;;;;;;;;5144468;28;20501;-85
2022/01/14 06:13:39;;;;;;;45.83;18.83;;;;;;;;;;5153163;28;20060;-88
2022/01/14 06:16:12;;;;;;;35.60;16.97;;;;;;;;;;5172504;28;20175;-85
2022/01/14 06:18:46;;;;;;;35.08;18.08;;;-1.50;99.90;;;;;;5218350;28;20623;-89
2022/01/14 06:21:19;;;;;;;37.80;18.63;;;;;;;;;;5173083;28;20053;-85
2022/01/14 06:23:52;;;;;;;41.38;19.70;;;;;;;;;;5197135;28;20068;-85
2022/01/14 06:26:27;;;;;;;36.70;19.13;;;;;;;;;;5212992;28;20053;-86
2022/01/14 06:29:00;;;;;;;35.60;18.30;;;;;;;;;;5172532;28;20067;-87
2022/01/14 06:31:34;;;;;;;45.33;20.08;;;;;;;;;;5176746;28;20061;-86
2022/01/14 06:34:07;;;;;;;38.17;17.67;;;;;;;;;;5191569;28;20408;-87
2022/01/14 06:36:40;;;;;;;44.03;19.27;;;;;;;;;;5184297;28;20052;-87
2022/01/14 06:39:13;;;;;;;45.97;19.37;;;;;;;;;;5179378;28;20309;-85
2022/01/14 06:41:46;;;;;;;39.35;19.15;;;;;;;;;;5203630;28;20370;-85
2022/01/14 06:44:19;;;;;;;38.63;19.33;;;;;;;;;;5204152;28;20064;-87
2022/01/14 06:46:52;;;;;;;35.42;17.65;;;;;;;;;;5184937;28;20303;-86
2022/01/14 06:49:25;;;;;;;40.30;19.83;;;;;;;;;;5212993;28;20060;-85
2022/01/14 06:51:58;;;;;;;35.65;17.35;;;;;;;;;;5198959;28;20502;-85
2022/01/14 06:54:31;;;;;;;39.80;17.85;;;;;;;;;;5202016;28;20064;-86
2022/01/14 06:57:04;;;;;;;39.00;16.67;;;;;;;;;;5205332;28;20041;-86
2022/01/14 06:59:37;;;;;;;43.30;19.50;;;;;;;;;;5200828;28;20060;-86
2022/01/14 07:02:11;;;;;;;38.30;18.75;;;;;;;;;;5210772;28;20659;-85
2022/01/14 07:04:44;;;;;;;38.45;19.15;;;;;;;;;;5211159;28;20055;-85
2022/01/14 07:07:17;;;;;;;44.13;19.27;;;;;;;;;;5194771;28;20705;-85
2022/01/14 07:09:58;;;;;;;37.77;19.40;;;;;;;;;;5210059;28;20923;-85
2022/01/14 07:12:39;;;;;;;51.42;21.80;;;-2.30;99.90;;;;;;5204970;28;20053;-85
2022/01/14 07:15:14;;;;;;;47.15;20.90;;;-2.00;99.90;;;;;;5205194;28;20056;-85
2022/01/14 07:17:47;;;;;;;49.25;21.67;;;;;;;;;;5215488;28;20428;-86
2022/01/14 07:20:20;;;;;;;52.40;23.10;;;;;;;;;;5203967;28;20174;-85
2022/01/14 07:22:53;;;;;;;47.42;22.15;;;;;;;;;;5201930;28;20065;-86
2022/01/14 07:25:26;;;;;;;42.00;21.13;;;;;;;;;;5216706;28;20056;-88
2022/01/14 07:27:59;;;;;;;43.47;21.23;;;;;;;;;;5221144;28;20302;-85
2022/01/14 07:30:32;;;;;;;40.93;19.07;;;;;;;;;;5202572;28;20068;-85
2022/01/14 07:33:05;;;;;;;48.60;20.88;;;;;;;;;;5189810;28;20295;-85
2022/01/14 07:35:39;;;;;;;52.70;21.42;;;;;;;;;;5183287;28;20337;-85
2022/01/14 07:38:13;;;;;;;47.67;21.85;;;;;;;;;;5163139;28;20051;-85
2022/01/14 07:40:45;;;;;;;53.20;22.35;;;;;;;;;;5150318;28;20056;-85
2022/01/14 07:43:20;;;;;;;49.42;20.48;;;;;;;;;;5198600;28;20064;-85
2022/01/14 07:45:53;;;;;;;40.00;19.58;;;;;;;;;;5209989;28;20048;-85
2022/01/14 07:48:26;;;;;;;49.15;22.15;;;;;;;;;;5226560;28;20053;-86
2022/01/14 07:50:59;;;;;;;49.60;20.53;;;;;;;;;;5212771;28;20056;-88
2022/01/14 07:53:31;;;;;;;50.78;23.17;;;;;;;;;;5183252;28;20056;-87
2022/01/14 07:56:06;;;;;;;46.40;22.83;;;;;;;;;;5205597;28;20524;-84
2022/01/14 07:58:40;;;;;;;46.15;21.65;;;-1.40;99.90;;;;;;5195250;28;20048;-85
2022/01/14 08:01:13;;;;;;;51.22;23.77;;;;;;;;;;5197722;28;20404;-85
2022/01/14 08:03:46;;;;;;;54.00;24.70;;;;;;;;;;5220309;28;20048;-86
2022/01/14 08:06:22;;;;;;;44.83;20.63;;;;;;;;;;5207509;28;20048;-85
2022/01/14 08:08:55;;;;;;;49.20;21.20;;;;;;;;;;5214827;28;20311;-86
2022/01/14 08:11:27;;;;;;;34.27;17.90;;;;;;;;;;5202788;28;20064;-85
2022/01/14 08:14:00;;;;;;;39.05;20.08;;;;;;;;;;5209108;28;20066;-85
2022/01/14 08:16:33;;;;;;;35.27;17.40;;;;;;;;;;5201682;28;20044;-85
2022/01/14 08:19:06;;;;;;;34.70;17.33;;;;;;;;;;5230655;28;20044;-84
2022/01/14 08:21:39;;;;;;;35.20;17.23;;;;;;;;;;5217935;28;20087;-84
2022/01/14 08:24:12;;;;;;;33.75;17.33;;;;;;;;;;5188137;28;20667;-85
2022/01/14 08:26:44;;;;;;;33.57;16.80;;;;;;;;;;5215158;28;20431;-84
2022/01/14 08:29:17;;;;;;;28.70;14.53;;;;;;;;;;5232348;28;20451;-85
2022/01/14 08:31:50;;;;;;;36.60;17.03;;;;;;;;;;5195985;28;20626;-85
2022/01/14 08:34:24;;;;;;;30.40;14.95;;;;;;;;;;5195453;28;20076;-84
2022/01/14 08:36:57;;;;;;;28.33;13.00;;;;;;;;;;5231416;28;20045;-84
2022/01/14 08:39:30;;;;;;;29.02;14.15;;;;;;;;;;5212641;28;20431;-85
2022/01/14 08:42:04;;;;;;;29.50;14.23;;;;;;;;;;5186486;28;20052;-84
2022/01/14 08:44:37;;;;;;;25.75;12.75;;;;;;;;;;5202408;28;20033;-84
2022/01/14 08:47:10;;;;;;;;;;;-0.20;99.90;;;;;;5228564;28;20508;-84
2022/01/14 08:49:43;;;;;;;24.08;11.88;;;;;;;;;;5209366;28;19936;-83
2022/01/14 08:52:16;;;;;;;26.58;13.63;;;;;;;;;;5195172;28;20040;-84
2022/01/14 08:54:49;;;;;;;27.10;12.83;;;;;;;;;;5225428;28;20044;-83
2022/01/14 08:57:22;;;;;;;22.70;13.10;;;;;;;;;;5193954;28;20305;-84
2022/01/14 08:59:55;;;;;;;29.75;14.60;;;;;;;;;;5207429;28;20059;-84
2022/01/14 09:02:28;;;;;;;23.33;12.97;;;;;;;;;;5208279;28;20067;-84
2022/01/14 09:05:02;;;;;;;29.08;14.32;;;;;;;;;;5194038;28;20057;-83
2022/01/14 09:07:35;;;;;;;28.02;14.73;;;;;;;;;;5228115;28;20037;-84
2022/01/14 09:10:09;;;;;;;22.17;12.80;;;2.80;99.90;;;;;;5231340;28;20041;-83
2022/01/14 09:12:42;;;;;;;23.83;13.20;;;;;;;;;;5226745;28;20044;-83
2022/01/14 09:15:16;;;;;;;28.73;13.83;;;;;;;;;;5228742;28;20055;-83
2022/01/14 09:17:48;;;;;;;24.40;13.20;;;;;;;;;;5207088;28;20491;-84
2022/01/14 09:20:21;;;;;;;20.27;10.93;;;;;;;;;;5207734;28;20415;-83
2022/01/14 09:22:57;;;;;;;25.10;12.63;;;;;;;;;;5228673;28;20048;-83
2022/01/14 09:25:30;;;;;;;22.80;12.48;;;;;;;;;;5225380;28;20048;-82
2022/01/14 09:28:03;;;;;;;20.05;11.10;;;;;;;;;;5214724;28;20052;-82
2022/01/14 09:30:36;;;;;;;20.10;12.07;;;;;;;;;;5209077;28;20139;-83
2022/01/14 09:33:09;;;;;;;20.63;12.40;;;;;;;;;;5208238;28;20088;-83
2022/01/14 09:35:42;;;;;;;23.02;11.88;;;;;;;;;;5228136;28;20302;-82
2022/01/14 09:38:16;;;;;;;18.73;10.63;;;;;;;;;;5226986;28;20072;-83
2022/01/14 09:40:50;;;;;;;21.95;10.95;;;1.90;99.90;;;;;;5224486;28;20295;-84
2022/01/14 09:43:24;;;;;;;17.38;10.00;;;;;;;;;;5227167;28;20516;-83
2022/01/14 09:46:08;;;;;;;19.92;9.57;;;1.90;99.90;;;;;;5212867;28;20137;-83
2022/01/14 09:48:42;;;;;;;18.60;10.13;;;;;;;;;;5211645;28;20243;-83
2022/01/14 09:51:14;;;;;;;18.83;10.67;;;;;;;;;;5214783;28;20040;-83
2022/01/14 09:53:47;;;;;;;16.30;9.10;;;2.50;99.90;;;;;;5223558;28;20059;-83
2022/01/14 09:56:22;;;;;;;17.80;9.93;;;2.20;99.90;;;;;;5209511;28;20043;-84
2022/01/14 09:58:56;;;;;;;18.85;8.85;;;;;;;;;;5225212;28;20045;-85
2022/01/14 10:01:44;;;;;;;16.05;8.85;;;2.50;99.90;;;;;;5198470;28;20053;-83
2022/01/14 10:04:20;;;;;;;17.55;9.75;;;2.90;99.90;;;;;;5213306;28;20048;-83
2022/01/14 10:06:55;;;;;;;14.25;8.70;;;2.60;99.90;;;;;;5223178;28;20385;-85
2022/01/14 10:09:33;;;;;;;17.80;9.00;;;2.70;99.90;;;;;;5224299;28;20079;-84
2022/01/14 10:12:17;;;;;;;18.40;8.85;;;2.70;99.30;;;;;;5227182;28;20422;-86
2022/01/14 10:14:58;;;;;;;15.68;8.75;;;2.50;98.20;;;;;;5202835;28;20534;-85
2022/01/14 10:17:36;;;;;;;18.95;9.77;;;3.10;97.70;;;;;;5188372;28;20542;-84
2022/01/14 10:20:13;;;;;;;18.05;9.43;;;3.80;97.30;;;;;;5212576;28;20045;-84
2022/01/14 10:22:48;;;;;;;15.05;8.90;;;3.10;97.10;;;;;;5223816;28;20044;-83
2022/01/14 10:25:21;;;;;;;16.25;9.43;;;;;;;;;;5197244;28;20068;-84
2022/01/14 10:27:55;;;;;;;17.50;9.75;;;3.40;96.00;;;;;;5184307;28;20056;-85
2022/01/14 10:30:32;;;;;;;20.60;9.98;;;3.30;96.00;;;;;;5214221;28;20036;-86
2022/01/14 10:33:08;;;;;;;14.35;8.90;;;3.40;95.50;;;;;;5195812;28;20045;-84
2022/01/14 10:35:46;;;;;;;16.67;9.45;;;3.30;95.00;;;;;;5209169;28;20059;-84
2022/01/14 10:38:21;;;;;;;18.55;9.30;;;3.50;94.50;;;;;;5215056;28;20471;-84
2022/01/14 10:40:56;;;;;;;20.13;11.50;;;2.50;93.90;;;;;;5206188;28;20436;-87
2022/01/14 10:43:36;;;;;;;15.77;9.52;;;3.60;93.80;;;;;;5211036;28;20079;-85
2022/01/14 10:46:10;;;;;;;23.55;10.45;;;3.70;93.70;;;;;;5213868;28;20053;-83
2022/01/14 10:48:46;;;;;;;17.48;9.95;;;3.80;93.50;;;;;;5215588;28;20420;-85
2022/01/14 10:51:19;;;;;;;17.13;10.23;;;;;;;;;;5198056;28;20051;-84
2022/01/14 10:53:54;;;;;;;15.93;9.17;;;3.80;92.90;;;;;;5213281;28;20060;-84
2022/01/14 10:56:27;;;;;;;18.48;9.88;;;;;;;;;;5187448;28;20295;-85
2022/01/14 10:59:00;;;;;;;18.45;9.65;;;;;;;;;;5213311;28;20051;-86
2022/01/14 11:01:34;;;;;;;18.00;10.20;;;;;;;;;;5211664;28;20052;-85
2022/01/14 11:04:14;;;;;;;17.08;10.95;;;4.00;91.80;;;;;;5215127;28;20033;-85
2022/01/14 11:06:47;;;;;;;19.83;10.75;;;;;;;;;;5212766;28;20056;-84
2022/01/14 11:09:22;;;;;;;18.07;10.23;;;;;;;;;;5208867;28;20060;-83
2022/01/14 11:11:56;;;;;;;16.70;9.77;;;;;;;;;;5199698;28;20045;-85
2022/01/14 11:14:29;;;;;;;23.15;10.10;;;;;;;;;;5198697;28;20082;-86
2022/01/14 11:17:08;;;;;;;14.30;8.48;;;;;;;;;;5185407;28;20051;-85
2022/01/14 11:19:45;;;;;;;18.13;10.02;;;4.40;90.90;;;;;;5212161;28;20049;-85
2022/01/14 11:25:13;;;;;;;17.35;9.60;;;4.50;90.70;;;;;;5242367;28;20060;-86
2022/01/14 11:27:49;;;;;;;16.25;9.57;;;4.60;90.60;;;;;;5216013;28;20057;-86
2022/01/14 11:30:38;;;;;;;21.67;8.93;;;4.60;90.40;;;;;;5231407;28;20040;-85
2022/01/14 11:33:13;;;;;;;23.38;10.75;;;4.70;90.60;;;;;;5208913;28;20047;-85
2022/01/14 11:35:56;;;;;;;19.13;10.55;;;4.70;90.30;;;;;;5212212;28;20049;-86
2022/01/14 11:38:38;;;;;;;18.95;10.27;;;4.80;90.00;;;;;;5215116;28;20492;-86
2022/01/14 11:41:14;;;;;;;15.85;9.85;;;5.00;89.60;;;;;;5211532;28;20049;-86
2022/01/14 11:43:53;;;;;;;21.63;10.50;;;4.80;88.90;;;;;;5214407;28;20090;-85
2022/01/14 11:46:32;;;;;;;21.80;10.38;;;5.00;88.70;;;;;;5193521;28;20384;-85
2022/01/14 11:49:35;;;;;;;17.60;9.75;;;5.10;88.30;;;;;;5228136;28;20394;-85
2022/01/14 11:52:08;;;;;;;19.27;8.93;;;5.20;87.20;;;;;;5215418;28;20052;-86
2022/01/14 11:54:45;;;;;;;18.35;9.80;;;5.30;86.90;;;;;;5211942;28;20064;-85
2022/01/14 11:57:40;;;;;;;18.10;9.88;;;5.30;86.60;;;;;;5209650;28;20428;-86
2022/01/14 12:00:37;;;;;;;20.45;9.63;;;5.40;86.10;;;;;;5193517;28;20048;-85
2022/01/14 12:03:13;;;;;;;20.65;10.15;;;;;;;;;;5225275;28;20212;-87
2022/01/14 12:06:07;;;;;;;27.00;10.23;;;5.40;85.30;;;;;;5186756;28;20404;-86
2022/01/14 12:08:40;;;;;;;18.33;9.60;;;;;;;;;;5218039;28;20053;-86
2022/01/14 12:11:14;;;;;;;20.30;10.05;;;;;;;;;;5220541;28;20074;-86
2022/01/14 12:14:01;;;;;;;15.77;10.18;;;5.60;85.40;;;;;;5234881;28;20056;-86
2022/01/14 12:19:15;;;;;;;17.65;10.38;;;5.60;84.20;;;;;;5215083;28;20052;-86
2022/01/14 12:21:49;;;;;;;15.48;10.05;;;;;;;;;;5198155;28;20045;-86
2022/01/14 12:24:22;;;;;;;17.65;8.85;;;;;;;;;;5186656;28;20053;-85
2022/01/14 12:27:03;;;;;;;17.38;8.45;;;;;;;;;;5181702;28;20091;-86
2022/01/14 12:30:03;;;;;;;18.10;8.73;;;5.70;83.60;;;;;;5202303;28;20067;-86
2022/01/14 12:32:38;;;;;;;15.98;9.10;;;5.80;84.10;;;;;;5197604;28;20130;-85
2022/01/14 12:35:21;;;;;;;16.15;8.65;;;5.80;83.70;;;;;;5187967;23;20832;-38
2022/01/14 12:37:56;;;;;;;15.43;8.32;;;5.80;83.50;;;;;;5155995;28;21158;-37
2022/01/14 12:40:36;;;;;;;14.18;8.38;;;5.80;83.30;;;;;;5185346;28;20293;-37
2022/01/14 12:43:12;;;;;;;14.50;8.23;;;6.00;83.00;;;;;;5175605;28;20045;-37
2022/01/14 12:46:03;;;;;;;15.88;8.43;;;6.00;83.10;;;;;;5186755;28;20349;-38
2022/01/14 12:51:14;;;;;;;16.63;7.82;;;6.10;82.80;;;;;;5199609;28;20484;-38
2022/01/14 12:54:02;;;;;;;15.73;7.65;;;6.10;82.30;;;;;;5193118;28;20060;-38
2022/01/14 12:56:37;;;;;;;12.73;6.10;;;6.10;82.20;;;;;;5179361;28;20420;-38
2022/01/14 12:59:13;;;;;;;14.95;7.07;;;6.10;82.60;;;;;;5203859;28;20535;-38
2022/01/14 13:01:51;;;;;;;12.32;7.30;;;6.20;82.80;;;;;;5178261;28;20037;-38
2022/01/14 13:04:26;;;;;;;9.93;6.15;;;;;;;;;;5188988;28;20048;-37
2022/01/14 13:07:01;;;;;;;;;;;6.20;83.10;;;;;;5199373;28;20060;-38
2022/01/14 13:09:37;;;;;;;10.65;5.78;;;6.20;83.40;;;;;;5202942;28;19928;-38
2022/01/14 13:12:14;;;;;;;11.35;5.00;;;6.30;83.60;;;;;;5171853;28;20072;-38
2022/01/14 13:14:53;;;;;;;10.43;4.93;;;6.30;83.70;;;;;;5177040;28;20045;-38
2022/01/14 13:18:00;;;;;;;14.20;5.43;;;6.20;83.60;;;;;;5184725;28;20033;-38
2022/01/14 13:20:33;;;;;;;7.82;4.78;;;6.30;83.90;;;;;;5203577;28;20044;-38
2022/01/14 13:23:08;;;;;;;6.30;4.15;;;;;;;;;;5201432;28;20068;-38
2022/01/14 13:25:40;;;;;;;8.00;4.78;;;;;;;;;;5188023;28;20076;-37
2022/01/14 13:28:13;;;;;;;8.15;4.25;;;;;;;;;;5190548;28;26997;-37
2022/01/14 13:30:46;;;;;;;9.50;5.13;;;;;;;;;;5152726;28;20701;-38
2022/01/14 13:33:20;;;;;;;9.00;4.28;;;;;;;;;;5184205;28;20053;-38
2022/01/14 13:35:54;;;;;;;7.65;3.90;;;;;;;;;;5165856;28;20192;-37
2022/01/14 13:38:26;;;;;;;16.25;4.25;;;;;;;;;;5129555;28;20643;-37
2022/01/14 13:40:59;;;;;;;9.20;5.18;;;;;;;;;;5162148;28;20048;-38
2022/01/14 13:43:37;;;;;;;6.18;3.70;;;6.00;86.90;;;;;;5159301;28;20052;-35
2022/01/14 13:46:18;;;;;;;6.55;3.70;;;5.10;84.60;;;;;;5120950;28;20053;-37
2022/01/14 13:48:52;;;;;;;7.50;3.33;;;6.50;85.80;;;;;;5136342;28;20053;-38
2022/01/14 13:51:27;;;;;;;6.55;3.67;;;6.50;86.30;;;;;;5106385;28;20932;-38
2022/01/14 13:54:03;;;;;;;6.03;3.22;;;7.10;86.90;;;;;;5136998;28;20046;-37
2022/01/14 13:56:37;;;;;;;5.57;3.22;;;5.60;86.20;;;;;;5155754;28;20045;-36
2022/01/14 13:59:09;;;;;;;5.65;3.67;;;6.70;87.00;;;;;;5145596;28;20599;-37
2022/01/14 14:01:52;;;;;;;5.75;3.58;;;6.80;87.40;;;;;;5155972;28;20045;-35
2022/01/14 14:04:28;;;;;;;7.25;2.70;;;6.70;87.10;;;;;;5156755;28;20515;-37
2022/01/14 14:07:07;;;;;;;3.45;2.55;;;6.80;87.30;;;;;;5140621;28;20473;-35
2022/01/14 14:12:42;;;;;;;5.15;2.67;;;7.60;86.60;;;;;;5118184;28;20515;-38
2022/01/14 14:18:10;;;;;;;4.13;2.60;;;6.90;86.60;;;;;;5142923;28;20037;-36
2022/01/14 14:20:43;;;;;;;3.67;2.40;;;6.90;86.40;;;;;;5160968;28;20493;-37
2022/01/14 14:23:22;;;;;;;6.18;2.38;;;6.90;86.70;;;;;;5138190;28;20660;-38
2022/01/14 14:25:59;;;;;;;3.78;2.97;;;6.90;86.80;;;;;;5143647;28;20059;-39
2022/01/14 14:28:32;;;;;;;4.32;2.28;;;7.00;86.90;;;;;;5125779;28;20080;-38
2022/01/14 14:31:04;;;;;;;4.05;2.13;;;7.00;87.80;;;;;;5153713;28;20061;-37
2022/01/14 14:33:37;;;;;;;3.05;2.15;;;7.00;87.90;;;;;;5188517;28;20530;-37
2022/01/14 14:36:09;;;;;;;2.75;2.00;;;7.00;88.50;;;;;;5193552;28;20079;-38
2022/01/14 14:38:46;;;;;;;4.57;2.53;;;7.00;88.70;;;;;;5195885;28;20057;-37
2022/01/14 14:41:32;;;;;;;4.63;2.08;;;7.00;89.60;;;;;;5190291;28;20071;-36
2022/01/14 14:44:06;;;;;;;2.78;1.92;;;7.10;90.00;;;;;;5188112;28;20638;-37
2022/01/14 14:46:42;;;;;;;8.57;3.40;;;7.10;90.10;;;;;;5170968;28;20060;-37
2022/01/14 14:49:15;;;;;;;8.00;3.95;;;7.10;90.20;;;;;;5171894;28;20056;-37
2022/01/14 14:51:47;;;;;;;6.13;3.72;;;7.00;90.20;;;;;;5195207;28;20157;-37
2022/01/14 14:54:23;;;;;;;7.72;3.58;;;7.00;90.20;;;;;;5171322;28;20572;-37
2022/01/14 14:56:56;;;;;;;7.65;4.30;;;7.00;90.30;;;;;;5190681;28;20052;-38
2022/01/14 14:59:28;;;;;;;7.10;4.97;;;7.00;90.40;;;;;;5176557;28;20045;-37
2022/01/14 15:02:01;;;;;;;7.10;4.45;;;7.00;90.40;;;;;;5170694;28;20052;-37
2022/01/14 15:04:34;;;;;;;6.55;3.83;;;7.00;90.60;;;;;;5168790;28;20384;-35
2022/01/14 15:07:08;;;;;;;7.45;4.38;;;7.00;90.60;;;;;;5147800;28;20396;-35
2022/01/14 15:09:41;;;;;;;;;;;7.00;90.60;;;;;;5175275;28;20135;-35
2022/01/14 15:12:14;;;;;;;8.88;4.78;;;6.90;90.20;;;;;;5150345;28;19935;-35
2022/01/14 15:14:48;;;;;;;9.05;5.07;;;6.90;90.60;;;;;;5177859;28;20049;-37
2022/01/14 15:19:59;;;;;;;6.13;4.15;;;6.80;90.60;;;;;;5167350;28;20060;-36